Date,TemperatureHighF,TemperatureAvgF,TemperatureLowF,DewpointHighF,DewpointAvgF,DewpointLowF,HumidityHigh,HumidityAvg,HumidityLow,PressureMaxIn,PressureMinIn,WindSpeedMaxMPH,WindSpeedAvgMPH,GustSpeedMaxMPH,PrecipitationSumIn
2013-1-25,9.3,3.1,-2.4,-2.6,-9.6,-99.9,67,60,57,30.09,29.98,5,-27,0,0.00
2013-1-26,14.0,4.4,-8.0,5.1,-5.0,-15.7,72,65,55,30.08,29.82,5,1,0,0.00
2013-1-27,29.8,23.0,13.1,24.6,15.0,4.9,88,72,59,29.82,29.62,5,2,0,0.00
2013-1-28,32.0,28.9,26.2,29.5,25.9,23.1,98,88,85,29.73,29.55,5,1,0,0.00
2013-1-29,30.6,27.7,21.0,29.9,23.6,15.0,98,84,76,29.78,29.47,11,4,0,0.00
2013-1-30,21.0,10.3,2.5,15.3,2.3,-5.3,79,70,62,29.76,29.68,11,5,0,0.00
2013-1-31,3.6,-4.1,-15.7,-4.0,-14.6,-26.7,70,59,52,30.22,29.75,11,3,0,0.00
2013-2-1,-1.5,-11.4,-22.4,-12.4,-21.9,-31.5,65,59,46,30.25,30.05,3,1,0,0.00
2013-2-2,7.5,-0.3,-12.6,-3.3,-9.8,-20.7,72,64,49,30.13,29.93,4,1,0,0.00
2013-2-3,9.7,5.1,0.5,-2.7,-5.3,-9.4,72,62,50,30.01,29.93,7,2,0,0.00
2013-2-4,11.5,2.4,-10.1,5.7,-8.5,-18.0,77,60,44,30.02,29.62,5,2,0,0.00
2013-2-5,19.9,14.4,5.0,15.9,5.4,-3.9,84,68,49,30.03,29.56,7,2,0,0.00
2013-2-6,19.8,15.3,10.4,16.0,8.5,1.1,85,74,63,30.04,29.91,6,2,0,0.00
2013-2-7,23.4,19.8,12.4,17.6,14.5,5.1,86,80,69,30.27,30.04,11,6,0,0.00
2013-2-8,24.8,11.9,-1.3,14.4,4.5,-7.5,84,72,61,30.32,30.10,4,1,0,0.00
2013-2-9,27.7,23.8,15.6,23.5,19.4,8.5,88,83,73,30.10,29.85,6,2,0,0.00
2013-2-10,27.5,24.9,22.6,24.1,21.5,19.3,87,87,85,29.85,29.33,16,8,0,0.00
2013-2-11,25.5,20.5,6.3,22.5,17.2,1.5,88,87,80,29.95,29.36,10,1,0,0.00
2013-2-12,28.4,18.6,0.5,25.6,15.2,-5.0,89,86,77,29.96,29.72,0,0,0,0.00
2013-2-13,36.0,26.5,17.8,34.0,17.7,-57.3,98,76,1,29.72,29.57,9,0,0,0.04
2013-2-14,25.9,18.9,9.0,21.5,10.0,-1.4,86,69,47,30.13,29.65,14,4,0,0.00
2013-2-15,18.3,7.4,-1.5,3.2,-2.6,-7.5,75,64,48,30.26,30.14,6,2,0,0.00
2013-2-16,15.3,6.5,-6.0,2.1,-2.6,-13.5,73,66,50,30.18,30.05,5,1,0,0.00
2013-2-17,30.9,16.8,-5.8,18.6,8.5,-12.7,77,69,57,30.04,29.55,5,2,0,0.00
2013-2-18,27.7,17.8,3.4,22.1,10.6,-6.0,80,73,63,29.83,29.47,14,3,0,0.00
2013-2-19,2.8,-0.8,-5.8,-6.6,-12.3,-16.0,65,57,47,30.34,29.83,12,5,0,0.00
2013-2-20,15.3,1.8,-10.3,-2.2,-10.2,-18.8,67,57,43,30.44,30.36,9,4,0,0.00
2013-2-21,21.6,8.8,-8.9,14.4,-0.9,-18.1,85,64,49,30.44,30.11,12,4,0,0.00
2013-2-22,26.1,22.2,18.0,21.1,18.1,14.5,87,84,78,30.10,29.79,9,4,0,0.00
2013-2-23,31.6,22.0,9.3,22.3,16.3,4.3,87,79,64,29.89,29.77,5,1,0,0.00
2013-2-24,35.1,16.1,0.5,22.1,8.7,-5.7,85,73,56,30.03,29.89,4,1,0,0.00
2013-2-25,29.7,16.8,4.1,20.1,10.4,-2.3,84,76,67,30.05,29.98,4,1,0,0.00
2013-2-26,35.2,21.2,5.0,22.8,13.3,-0.3,87,72,58,30.03,29.91,9,3,0,0.00
2013-2-27,38.7,28.6,19.4,22.4,17.6,11.2,76,64,45,30.03,29.88,14,7,0,0.00
2013-2-28,27.9,24.0,15.4,19.4,15.2,9.5,79,69,59,30.22,30.03,12,6,0,0.00
2013-3-1,25.0,17.0,5.0,11.8,7.4,-1.1,80,66,50,30.34,30.22,9,3,0,0.00
2013-3-2,29.5,10.8,-5.4,9.5,-0.4,-12.6,78,62,38,30.30,30.13,4,1,0,0.00
2013-3-5,22.8,17.7,15.8,18.4,9.7,-99.9,84,80,82,30.26,30.17,9,-38,0,0.00
2013-3-6,25.5,16.7,0.7,15.0,9.8,-6.2,84,74,56,30.36,30.26,8,2,0,0.00
2013-3-7,31.5,14.0,-8.5,15.6,3.9,-16.3,80,65,47,30.32,30.20,4,1,0,0.00
2013-3-8,37.8,25.8,16.2,23.6,17.3,8.8,82,70,55,30.23,30.02,4,1,0,0.02
2013-3-9,33.6,31.5,28.2,30.7,27.9,22.7,90,87,79,30.01,29.64,8,2,0,0.09
2013-3-10,31.5,26.1,22.1,28.1,21.3,16.6,88,82,75,29.98,29.77,14,7,0,0.01
2013-3-11,28.0,22.5,17.4,19.7,16.0,12.0,80,76,68,29.91,29.68,10,4,0,0.00
2013-3-12,25.3,18.8,10.4,12.7,8.3,3.6,80,64,48,30.15,29.73,14,3,0,0.00
2013-3-13,33.6,18.1,3.9,14.8,8.3,-1.9,81,67,43,30.30,30.15,4,1,0,0.05
2013-3-14,39.4,27.6,18.5,26.7,20.4,10.7,84,74,60,30.16,29.94,4,1,0,0.12
2013-3-15,28.9,24.8,17.1,24.6,19.3,12.8,89,80,60,29.95,29.84,11,6,0,0.00
2013-3-16,21.7,11.9,3.6,12.5,3.1,-7.1,83,68,47,30.20,29.93,10,4,0,0.00
2013-3-17,23.2,7.1,-18.2,7.8,-5.2,-27.2,73,57,42,30.22,29.76,6,2,0,0.00
2013-3-18,25.3,18.8,7.2,22.3,11.8,-1.1,88,74,60,29.75,29.43,9,3,0,0.00
2013-3-19,27.3,10.7,0.9,2.3,-4.1,-11.1,70,53,29,30.10,29.71,8,3,0,0.00
2013-3-20,21.9,9.3,-1.3,2.4,-5.0,-11.8,60,52,41,30.12,30.02,10,4,0,0.00
2013-3-21,28.2,11.4,-8.0,8.3,-1.0,-16.0,73,58,40,30.07,29.97,7,2,0,0.00
2013-3-22,34.5,15.4,-4.7,12.1,2.4,-11.7,76,58,33,30.03,29.96,6,2,0,0.01
2013-3-23,38.8,25.1,8.1,20.6,12.9,0.1,78,60,41,30.09,30.01,5,1,0,0.04
2013-3-24,31.1,27.2,23.9,22.0,19.0,15.4,79,71,63,30.04,29.96,14,5,0,0.00
2013-3-25,35.2,27.3,17.4,17.7,14.0,9.0,69,57,46,30.19,30.02,14,4,0,0.00
2013-3-26,40.3,30.4,22.1,22.3,16.6,12.9,70,57,40,30.25,30.19,7,2,0,0.00
2013-3-27,44.8,32.5,23.9,20.6,17.6,14.7,73,56,31,30.29,30.24,4,1,0,0.00
2013-3-28,47.1,29.5,13.5,21.9,16.3,9.0,82,61,33,30.29,30.22,4,1,0,0.00
2013-3-29,52.2,37.5,25.0,33.1,26.7,18.2,83,66,47,30.23,29.96,4,1,0,0.00
2013-3-30,51.6,40.9,32.7,38.1,33.0,26.9,98,75,46,29.96,29.75,6,2,0,0.24
2013-3-31,32.9,28.9,18.0,27.8,16.7,6.3,86,62,38,30.04,29.69,14,4,0,0.00
2013-4-1,35.8,22.2,12.4,10.4,7.0,4.4,72,53,29,30.18,30.04,7,2,0,0.00
2013-4-2,35.4,23.7,14.2,11.6,9.4,7.8,75,56,31,30.28,30.16,7,2,0,0.00
2013-4-3,42.8,29.6,14.0,30.8,16.2,4.8,73,59,38,30.30,29.87,6,2,0,0.00
2013-4-4,41.7,36.0,27.7,31.1,23.3,16.2,82,62,39,30.16,29.85,8,4,0,0.00
2013-4-5,39.7,29.6,18.0,24.7,17.6,12.3,79,62,40,30.22,29.89,8,3,0,0.00
2013-4-6,36.7,33.0,30.9,30.8,28.6,25.5,89,84,71,29.87,29.56,7,3,0,0.41
2013-4-7,43.3,35.3,31.5,30.6,27.9,25.8,88,75,58,29.89,29.72,5,2,0,0.10
2013-4-8,38.8,35.1,32.5,33.4,30.6,28.2,88,83,78,30.09,29.72,9,5,0,0.15
2013-4-9,34.9,30.7,23.0,29.4,19.5,14.7,80,63,53,30.19,30.06,18,9,0,0.00
2013-4-10,39.0,33.4,28.0,20.8,16.4,11.3,62,50,34,30.23,29.98,16,10,0,0.00
2013-4-11,32.7,28.4,25.5,25.5,21.6,13.3,89,77,45,29.99,29.76,19,12,0,0.00
2013-4-12,31.5,26.9,25.0,27.8,23.3,21.1,87,86,85,29.81,29.70,13,6,0,0.00
2013-4-13,36.3,27.0,20.5,31.9,23.2,15.9,89,85,72,29.94,29.79,0,0,0,0.07
2013-4-14,36.1,26.7,12.9,28.4,20.7,9.0,89,79,53,29.93,29.42,18,6,0,0.00
2013-4-15,35.6,32.8,29.8,34.7,23.0,-56.0,98,77,1,29.84,29.35,6,3,0,0.12
2013-4-16,45.1,35.5,29.8,33.3,27.8,24.4,98,76,47,30.29,29.84,6,2,0,0.00
2013-4-17,38.3,33.1,28.8,27.8,25.5,23.2,89,74,61,30.30,29.98,11,5,0,0.00
2013-4-18,30.6,29.2,27.9,27.8,25.7,24.0,89,87,85,29.97,29.53,20,9,0,0.00
2013-4-19,36.9,29.1,23.2,25.3,18.9,4.3,88,68,38,29.92,29.48,21,6,0,0.00
2013-4-20,41.7,26.3,7.9,15.5,9.3,1.0,77,51,28,30.23,29.93,5,1,0,0.07
2013-4-21,44.6,33.7,25.5,34.0,25.9,10.3,88,73,51,30.23,29.94,5,1,0,0.17
2013-4-22,35.8,31.0,27.0,30.3,25.3,21.4,89,80,57,30.22,30.07,11,3,0,0.00
2013-4-23,45.0,32.4,23.4,25.2,18.5,11.9,83,59,30,30.13,29.98,10,3,0,0.04
2013-4-24,41.7,30.5,19.0,31.6,22.6,13.3,82,73,55,29.98,29.82,5,1,0,0.01
2013-4-25,47.7,36.5,25.2,27.1,24.4,20.9,86,63,38,30.10,29.90,5,2,0,0.00
2013-4-26,65.3,47.3,36.0,38.0,32.3,26.6,77,58,33,30.09,29.87,4,1,0,0.00
2013-4-27,70.0,51.0,31.3,36.1,31.5,26.1,83,52,24,30.09,29.78,5,1,0,0.00
2013-4-28,65.5,55.0,48.0,47.7,43.0,30.7,78,65,47,29.78,29.65,6,2,0,0.01
2013-4-29,69.3,50.7,37.9,40.2,26.5,-3.5,73,46,7,29.83,29.51,6,2,0,0.00
2013-4-30,65.1,53.3,45.9,51.4,38.3,19.9,98,61,19,29.92,29.30,8,3,0,0.08
2013-5-1,45.9,37.9,33.4,32.0,24.1,20.5,68,58,43,30.49,29.93,9,3,0,0.00
2013-5-2,37.8,32.6,28.6,24.0,21.0,19.5,69,62,50,30.56,30.43,12,6,0,0.00
2013-5-3,40.5,33.5,27.1,29.3,22.9,18.7,84,65,48,30.43,30.17,14,8,0,0.00
2013-5-4,38.3,33.8,31.5,35.1,30.3,27.9,88,87,85,30.19,30.14,11,6,0,0.07
2013-5-5,64.6,45.2,33.8,46.2,36.8,29.7,87,74,50,30.18,30.05,8,3,0,0.00
2013-5-6,72.1,51.7,35.4,47.6,40.8,31.3,89,69,40,30.10,29.97,3,1,0,0.00
2013-5-7,77.9,58.9,39.7,48.7,43.1,36.2,88,60,28,30.03,29.90,4,1,0,0.00
2013-5-8,66.4,53.9,42.8,52.0,45.0,38.4,87,73,50,30.01,29.92,3,1,0,0.00
2013-5-9,52.7,46.3,38.8,49.2,39.2,26.7,89,77,60,30.17,29.99,14,5,0,0.06
2013-5-10,66.7,46.5,31.1,36.7,25.5,10.5,80,50,11,30.17,29.84,10,3,0,0.00
2013-5-11,45.7,39.9,33.1,34.3,24.1,19.2,86,54,37,30.15,29.95,12,5,0,0.00
2013-5-12,54.3,41.5,30.0,23.1,18.2,8.2,67,42,16,30.19,30.05,14,3,0,0.00
2013-5-13,70.5,48.7,33.8,38.8,28.9,16.6,66,47,29,30.06,29.60,4,1,0,0.01
2013-5-14,89.1,62.7,41.7,46.5,39.1,3.5,81,50,4,29.72,29.39,7,2,0,0.00
2013-5-15,82.8,64.1,48.2,43.8,36.8,20.8,77,43,11,29.85,29.65,8,2,0,0.00
2013-5-16,78.1,63.0,51.1,41.4,35.1,26.5,68,39,15,29.93,29.80,8,4,0,0.00
2013-5-17,68.0,56.9,49.1,48.0,38.9,30.2,71,52,34,29.99,29.90,9,4,0,0.00
2013-5-18,66.7,56.8,49.5,62.0,52.5,42.3,98,86,71,29.96,29.77,8,2,0,0.50
2013-5-19,76.1,58.9,49.3,63.8,53.3,45.0,88,82,63,29.79,29.57,10,3,0,0.31
2013-5-20,59.0,50.1,45.7,55.1,44.8,40.4,88,82,73,29.60,29.48,11,5,0,0.11
2013-5-21,52.3,47.6,44.2,47.6,42.8,38.2,90,84,78,29.76,29.55,16,10,0,0.06
2013-5-22,53.4,47.5,44.6,46.6,42.6,39.3,89,83,66,30.03,29.73,12,7,0,0.23
2013-5-23,63.5,51.2,43.2,41.3,33.5,26.3,88,54,25,30.29,30.04,10,4,0,0.00
2013-5-24,66.0,53.6,40.1,46.3,34.5,29.5,87,51,26,30.35,30.19,5,1,0,0.04
2013-5-25,67.1,56.9,49.5,49.4,46.9,43.3,89,71,48,30.23,30.17,7,2,0,0.06
2013-5-26,68.4,56.1,45.3,46.4,39.2,33.7,82,56,29,30.22,30.02,8,2,0,0.01
2013-5-27,61.0,55.0,46.6,51.2,44.8,36.9,78,68,60,30.04,29.81,6,2,0,0.00
2013-5-28,65.5,58.3,52.9,53.5,50.7,48.0,85,76,64,29.81,29.67,4,1,0,0.00
2013-5-29,72.1,61.0,55.6,59.5,55.6,51.8,89,83,64,29.81,29.60,10,2,0,0.09
2013-5-30,73.4,64.7,60.8,64.0,59.1,55.8,89,82,67,29.62,29.46,5,1,0,0.72
2013-5-31,69.8,63.3,58.5,58.8,54.3,51.3,89,73,56,29.50,29.42,4,1,0,0.03
2013-6-1,58.8,54.1,48.6,55.1,49.1,43.0,89,83,72,29.95,29.50,17,6,0,0.00
2013-6-2,65.3,53.9,44.6,44.3,40.7,37.1,85,63,39,30.05,29.95,11,4,0,0.00
2013-6-3,66.9,55.7,42.6,45.0,39.7,35.2,88,58,33,30.04,29.94,5,2,0,0.00
2013-6-4,58.8,53.6,46.9,51.6,44.5,34.4,89,73,48,30.08,29.99,6,2,0,0.38
2013-6-5,52.9,51.1,48.0,49.2,46.9,44.8,92,86,82,30.03,29.97,11,4,0,0.60
2013-6-6,53.8,48.9,46.8,48.2,45.0,42.2,90,86,78,30.04,29.99,9,6,0,0.00
2013-6-8,71.1,65.4,58.1,52.9,52.1,51.0,79,63,50,29.89,29.86,3,1,0,0.00
2013-6-9,58.6,55.0,53.1,52.1,50.4,49.3,89,84,78,29.90,29.79,9,3,0,0.11
2013-6-10,69.1,59.2,53.6,59.8,53.4,47.9,89,81,68,29.83,29.78,4,0,0,0.00
2013-6-11,75.7,65.7,55.2,60.5,50.9,42.6,86,62,31,29.87,29.79,5,1,0,0.00
2013-6-12,73.2,65.5,58.1,60.8,53.3,48.8,84,66,46,29.95,29.81,14,2,0,0.00
2013-6-13,73.9,64.5,56.8,54.1,51.3,46.9,80,63,44,30.09,29.95,7,3,0,0.00
2013-6-14,75.0,65.1,54.1,58.9,54.4,47.6,83,69,56,30.06,29.82,4,1,0,0.00
2013-6-15,74.5,68.0,60.1,62.8,54.7,47.2,88,65,40,29.87,29.79,6,1,0,0.00
2013-6-16,82.9,75.1,56.5,55.9,49.2,41.2,75,42,24,29.86,29.74,9,3,0,0.00
2013-6-17,71.8,63.1,52.2,59.6,53.8,35.1,85,72,52,30.05,29.81,10,2,0,0.00
2013-6-18,73.4,59.9,47.5,46.2,39.0,31.6,73,48,25,30.11,30.00,7,2,0,0.00
2013-6-19,83.7,68.4,54.1,60.5,55.4,45.3,86,65,39,30.01,29.89,2,0,0,0.00
2013-6-20,72.3,66.9,61.9,65.1,60.9,58.0,98,81,76,29.99,29.85,9,3,0,0.46
2013-6-21,75.9,67.0,61.2,65.1,60.2,53.1,89,79,65,30.04,29.63,18,3,0,3.08
2013-6-22,68.4,63.6,59.7,63.2,59.5,55.8,89,86,82,29.96,29.85,9,4,0,0.00
2013-6-23,77.2,66.5,58.1,66.3,58.3,51.5,86,75,60,29.82,29.55,11,2,0,0.69
2013-6-24,80.6,69.4,58.1,65.8,60.6,53.3,89,75,54,29.85,29.75,3,0,0,0.00
2013-6-25,85.6,73.5,64.6,67.2,64.2,59.3,88,74,51,29.78,29.66,3,0,0,0.00
2013-6-26,81.9,74.5,68.7,70.4,65.8,62.5,88,75,58,29.75,29.59,4,1,0,0.00
2013-6-27,81.1,72.8,65.3,64.2,60.8,56.3,88,68,44,29.77,29.72,10,3,0,0.00
2013-6-28,73.8,67.6,63.9,62.8,59.9,57.1,88,77,63,29.79,29.72,15,5,0,0.05
2013-6-29,72.7,66.7,60.1,60.9,56.7,51.5,89,72,48,29.98,29.76,14,6,0,0.24
2013-6-30,79.5,67.9,56.1,57.5,54.5,49.0,88,65,36,30.10,29.98,6,2,0,0.00
2013-7-1,81.0,70.0,60.4,61.1,56.4,52.2,85,64,38,30.19,30.11,6,2,0,0.00
2013-7-2,79.5,66.6,55.9,59.2,53.3,44.0,84,65,41,30.16,30.03,5,1,0,0.00
2013-7-3,83.1,69.9,58.3,60.1,56.1,49.8,87,65,34,30.04,29.91,3,0,0,0.00
2013-7-4,84.4,72.4,60.6,64.8,58.7,52.8,79,63,43,29.92,29.78,3,0,0,0.00
2013-7-5,86.9,75.9,69.4,66.0,61.6,56.2,82,62,48,29.81,29.72,4,1,0,0.00
2013-7-6,74.7,70.5,68.5,68.2,65.1,62.6,88,83,73,29.83,29.78,4,0,0,0.13
2013-7-7,83.5,74.6,65.8,72.1,67.0,61.3,89,78,64,29.91,29.77,6,2,0,0.00
2013-7-8,81.0,68.1,60.4,67.3,60.3,54.5,89,77,47,29.99,29.90,5,2,0,0.00
2013-7-9,78.4,70.7,64.9,68.9,64.6,55.3,89,81,69,29.95,29.72,9,2,0,0.73
2013-7-10,76.5,67.6,58.8,58.0,55.8,53.2,87,68,46,30.02,29.92,8,3,0,0.00
2013-7-11,82.4,69.7,58.8,62.3,58.6,55.4,89,70,46,30.07,29.89,3,1,0,0.00
2013-7-12,84.9,75.6,67.8,67.1,61.8,57.3,73,63,54,29.92,29.80,5,2,0,0.00
2013-7-13,77.0,72.4,69.6,69.0,66.3,63.5,87,81,70,30.03,29.84,4,0,0,0.01
2013-7-14,69.6,67.0,63.5,63.6,60.8,57.9,98,81,69,30.20,30.01,3,0,0,0.58
2013-7-15,82.0,72.2,65.8,71.9,64.0,57.6,87,76,67,30.21,30.12,5,0,0,0.20
2013-7-16,87.1,77.5,68.4,71.6,68.3,64.4,87,75,53,30.17,30.09,5,1,0,0.00
2013-7-17,88.7,77.8,69.4,72.6,68.9,65.4,87,75,53,30.19,30.07,4,0,0,0.00
2013-7-18,91.6,80.6,72.7,71.8,69.7,67.9,87,71,47,30.06,29.63,5,1,0,0.00
2013-7-19,79.3,74.3,68.5,71.0,62.9,58.6,84,68,50,29.84,29.64,8,3,0,0.00
2013-7-20,70.5,65.6,62.1,60.2,54.8,49.5,85,69,51,29.96,29.83,9,4,0,0.00
2013-7-21,77.4,67.8,55.9,64.2,57.6,49.1,83,70,58,29.94,29.73,5,2,0,0.00
2013-7-22,76.5,70.3,64.8,67.9,61.2,54.1,88,74,58,29.83,29.61,9,3,0,0.00
2013-7-23,70.3,63.1,58.5,56.0,53.5,51.3,85,72,53,30.01,29.84,10,5,0,0.00
2013-7-24,76.8,65.7,57.4,59.5,55.5,52.0,89,71,45,30.03,29.89,5,1,0,0.16
2013-7-25,77.0,64.9,59.9,65.4,58.9,54.7,89,81,60,29.91,29.82,8,1,0,0.18
2013-7-26,62.4,57.8,53.1,55.6,52.1,47.1,89,81,68,30.08,29.85,21,6,0,0.02
2013-7-27,62.1,54.9,50.7,49.8,46.9,45.2,85,75,61,30.07,29.92,18,6,0,0.00
2013-7-28,67.6,58.4,50.7,54.3,49.8,45.1,89,74,57,30.04,29.94,11,5,0,0.00
2013-7-29,73.2,63.0,52.7,59.0,54.7,49.2,89,75,54,30.09,30.02,3,0,0,0.00
2013-7-30,73.2,65.4,61.2,63.4,59.4,55.7,89,81,67,30.06,29.99,2,0,0,0.00
2013-7-31,74.7,66.4,59.4,60.3,54.6,49.2,89,68,42,30.01,29.94,8,2,0,0.00
2013-8-1,76.1,65.0,55.2,59.6,54.6,50.7,85,71,49,29.98,29.81,5,1,0,0.00
2013-8-2,71.8,64.5,56.8,55.5,52.6,48.7,88,67,46,30.02,29.83,9,2,0,0.00
2013-8-3,71.6,63.2,54.7,55.2,51.4,46.3,89,68,42,30.20,30.03,11,3,0,0.00
2013-8-4,71.4,61.9,51.8,56.0,52.6,47.9,89,73,55,30.23,29.95,5,1,0,0.00
2013-8-5,77.0,65.6,59.7,64.1,58.2,52.4,89,78,60,29.96,29.74,5,1,0,0.00
2013-8-6,74.5,62.9,55.6,63.1,57.7,52.1,89,83,66,29.80,29.66,6,1,0,0.08
2013-8-7,70.5,62.5,56.1,59.1,53.0,49.2,89,73,49,29.97,29.77,10,3,0,0.00
2013-8-8,70.7,60.6,55.0,61.7,55.2,51.5,89,83,63,30.01,29.93,8,1,0,0.03
2013-8-9,66.0,60.3,54.3,56.0,52.7,50.1,89,77,60,30.10,29.95,7,2,0,0.00
2013-8-10,74.1,63.3,57.6,57.5,54.6,49.9,88,74,50,30.16,30.05,4,0,0,0.00
2013-8-11,75.7,64.8,54.5,60.0,55.9,51.3,89,74,53,30.07,29.96,5,1,0,0.00
2013-8-12,74.1,65.0,57.0,57.2,54.5,49.6,89,70,47,30.07,29.99,8,3,0,0.00
2013-8-13,71.6,61.5,52.3,51.9,49.4,45.5,89,67,42,30.19,30.08,9,2,0,0.00
2013-8-14,73.9,61.7,51.8,56.2,51.8,48.0,88,72,44,30.17,30.04,4,0,0,0.00
2013-8-15,75.7,63.2,53.6,57.5,53.8,49.5,88,73,44,30.09,30.03,3,0,0,0.00
2013-8-16,79.7,66.4,57.2,61.7,56.6,53.6,89,73,46,30.13,30.07,3,0,0,0.00
2013-8-17,78.8,67.3,56.5,59.3,56.5,53.2,89,70,48,30.13,30.01,4,1,0,0.00
2013-8-18,79.7,70.2,60.8,59.6,57.8,55.4,83,66,49,30.06,29.90,5,1,0,0.00
2013-8-19,82.6,72.9,65.7,69.4,64.6,58.4,84,76,62,29.92,29.82,3,0,0,0.00
2013-8-20,88.7,76.9,67.8,73.2,68.8,64.1,89,77,55,29.84,29.76,4,0,0,0.00
2013-8-21,81.9,75.9,69.4,71.4,64.4,55.0,88,70,41,30.00,29.75,10,3,0,0.00
2013-8-22,77.0,69.8,62.2,57.4,51.7,45.0,70,54,35,30.13,29.99,11,4,0,0.00
2013-8-23,82.0,69.5,57.9,63.7,56.3,51.2,83,65,41,30.12,29.96,3,0,0,0.00
2013-8-24,88.9,77.1,68.2,70.9,67.3,63.5,88,73,53,30.00,29.82,7,2,0,0.00
2013-8-25,90.1,80.2,72.3,77.3,71.9,67.4,89,77,58,29.92,29.85,4,1,0,0.04
2013-8-26,89.2,79.0,72.3,77.4,72.8,68.1,88,82,66,29.93,29.78,10,1,0,0.01
2013-8-27,82.0,74.6,70.5,72.2,69.0,65.4,89,83,70,29.90,29.76,8,3,0,0.01
2013-8-28,82.4,74.9,69.6,71.9,68.5,65.4,88,81,66,30.00,29.89,4,0,0,0.00
2013-8-29,84.0,75.1,68.7,75.9,70.2,65.0,89,85,76,29.98,29.77,7,1,0,0.01
2013-8-30,78.3,70.4,65.8,67.7,64.1,60.5,90,81,60,29.96,29.81,12,5,0,0.00
2013-8-31,87.3,70.9,63.5,68.5,63.5,59.9,98,79,49,29.89,29.64,3,0,0,0.14
2013-9-1,66.2,63.8,58.8,62.5,57.4,50.6,90,80,70,29.97,29.69,12,4,0,0.00
2013-9-2,66.7,57.7,53.2,52.7,50.6,47.7,89,78,57,30.08,29.97,11,4,0,0.00
2013-9-3,78.1,62.5,50.2,60.5,54.8,47.4,98,78,50,30.04,29.91,3,0,0,0.00
2013-9-4,72.5,66.9,60.4,61.6,58.5,51.0,86,75,60,30.14,29.94,9,4,0,0.00
2013-9-5,77.5,70.3,59.7,60.9,55.6,50.7,80,61,40,30.14,30.04,2,0,0,0.00
2013-9-6,90.0,75.3,65.5,69.7,65.4,60.9,90,73,46,30.04,29.79,5,1,0,0.00
2013-9-7,81.3,74.4,64.4,70.5,67.3,57.7,89,79,62,30.05,29.82,8,4,0,0.00
2013-9-8,64.2,60.3,57.6,57.4,54.5,50.5,93,82,65,30.06,29.84,5,2,0,0.72
2013-9-9,69.6,66.0,61.0,63.0,60.3,57.6,89,82,74,29.84,29.61,3,0,0,1.27
2013-9-10,75.7,66.9,61.3,68.5,58.2,48.0,98,75,56,29.92,29.68,7,1,0,0.01
2013-9-11,76.5,66.4,59.5,62.4,57.2,50.7,98,75,44,30.06,29.90,6,2,0,0.00
2013-9-12,65.8,59.0,51.4,56.1,50.5,46.7,98,75,52,30.22,30.06,14,4,0,0.00
2013-9-13,68.0,55.9,47.1,50.9,47.8,44.2,98,76,52,30.24,30.01,3,0,0,0.00
2013-9-14,65.8,56.4,52.3,57.0,49.2,44.9,98,77,67,30.01,29.86,3,0,0,1.34
2013-9-15,58.3,54.6,46.9,56.2,49.0,43.9,98,82,67,30.31,29.89,18,6,0,0.01
2013-9-16,62.8,51.0,43.9,47.5,44.2,41.7,98,79,50,30.39,30.19,3,0,0,0.00
2013-9-17,64.4,56.3,48.6,56.1,49.3,40.7,98,78,69,30.19,29.88,4,1,0,0.00
2013-9-18,67.1,62.3,56.5,66.3,58.8,53.6,98,89,79,29.88,29.62,2,0,0,0.00
2013-9-19,67.1,65.0,57.9,63.6,58.7,54.3,98,80,73,29.72,29.55,6,1,0,0.21
2013-9-20,59.0,54.9,48.6,57.3,51.3,45.8,98,89,65,29.87,29.70,6,3,0,0.03
2013-9-21,59.4,50.2,46.6,47.9,44.4,41.5,98,81,60,29.95,29.86,12,3,0,0.00
2013-9-22,66.6,55.1,45.7,54.0,49.2,43.2,98,82,62,29.92,29.78,5,2,0,0.00
2013-9-23,69.6,60.6,54.1,55.4,52.9,49.9,87,76,59,29.87,29.79,5,1,0,0.00
2013-9-24,70.0,59.4,53.2,57.2,53.4,49.7,98,81,62,29.93,29.86,3,1,0,0.00
2013-9-25,70.7,59.9,52.5,57.0,53.6,49.6,98,81,56,29.93,29.82,4,0,0,0.00
2013-9-26,73.6,63.7,56.3,60.4,56.4,51.8,86,78,63,29.87,29.76,5,2,0,0.00
2013-9-27,64.8,64.2,63.9,59.9,59.7,59.6,86,85,84,29.84,29.83,3,2,0,0.00
2013-9-28,68.9,57.2,46.0,62.0,53.4,43.4,98,87,77,29.82,29.48,6,2,0,0.23
2013-9-29,70.2,56.1,44.4,51.9,47.4,42.3,98,75,45,29.86,29.65,3,1,0,0.00
2013-9-30,72.0,62.0,54.9,56.0,51.2,46.7,83,68,54,29.64,29.51,4,1,0,0.00
2013-10-1,66.6,59.9,50.5,55.1,46.3,39.0,83,63,38,29.92,29.46,8,2,0,0.00
2013-10-2,68.7,53.0,43.9,53.7,46.0,39.6,98,79,42,29.98,29.89,10,2,0,0.86
2013-10-3,55.4,52.6,50.7,54.2,51.3,48.5,98,96,86,29.98,29.87,12,7,0,0.09
2013-10-4,55.6,51.7,49.6,50.8,49.5,47.7,98,92,79,30.04,29.89,16,9,0,0.04
2013-10-5,52.0,49.8,48.6,51.5,48.6,45.4,98,95,87,29.90,29.69,16,7,0,0.30
2013-10-6,52.5,47.1,44.8,48.1,45.4,42.9,98,94,75,29.77,29.65,13,5,0,0.01
2013-10-7,59.2,49.3,42.1,46.2,43.6,39.6,98,82,54,29.90,29.75,7,1,0,0.00
2013-10-8,71.4,58.1,45.9,51.2,46.8,41.8,86,68,47,29.87,29.66,4,1,0,0.00
2013-10-9,68.2,60.1,54.0,55.6,50.8,47.4,88,72,59,29.98,29.78,3,1,0,0.00
2013-10-10,69.3,59.7,52.3,57.0,51.4,47.6,87,75,62,29.97,29.81,5,1,0,0.00
2013-10-11,69.1,59.8,55.2,58.2,53.1,49.4,98,79,59,29.82,29.49,6,2,0,0.77
2013-10-12,55.2,48.5,43.7,51.3,45.3,43.2,98,89,79,30.10,29.53,6,2,0,0.09
2013-10-13,54.7,44.7,38.1,43.4,38.4,33.6,98,81,45,30.37,30.11,6,1,0,0.00
2013-10-14,49.5,44.9,41.2,44.3,41.0,37.8,98,87,64,30.38,29.99,13,3,0,0.05
2013-10-15,46.9,45.0,41.9,46.4,44.5,41.4,98,98,98,29.98,29.70,17,12,0,0.45
2013-10-16,50.9,43.0,37.6,42.7,38.3,35.3,98,84,55,29.89,29.78,10,2,0,0.00
2013-10-17,49.5,42.7,37.4,45.4,40.0,36.8,98,90,78,29.82,29.71,9,2,0,0.08
2013-10-18,47.7,40.7,33.4,39.8,34.6,31.9,98,80,56,29.89,29.71,6,1,0,0.00
2013-10-19,43.5,38.4,33.4,34.5,31.7,28.1,90,78,55,29.72,29.60,9,2,0,0.00
2013-10-20,35.2,33.2,30.4,34.7,31.5,23.5,98,94,71,29.80,29.62,10,2,0,0.39
2013-10-21,35.1,32.2,28.9,27.6,24.5,20.5,81,73,63,29.86,29.79,10,3,0,0.00
2013-10-22,40.1,34.9,32.5,31.3,28.9,26.5,88,79,58,29.95,29.85,8,2,0,0.00
2013-10-23,32.5,31.7,30.0,29.1,23.9,20.1,87,73,62,30.03,29.90,7,2,0,0.00
2013-10-24,39.2,34.7,30.4,29.9,27.0,22.1,85,73,62,30.22,30.02,7,2,0,0.00
2013-10-25,50.5,39.6,28.8,40.5,31.9,25.7,89,74,60,30.22,29.64,6,2,0,0.00
2013-10-26,46.0,38.8,35.2,33.3,29.0,26.4,74,68,56,30.03,29.72,8,3,0,0.00
2013-10-27,48.2,38.4,30.9,33.1,28.9,25.2,81,69,54,30.17,29.69,19,6,0,0.00
2013-10-28,34.9,30.6,25.5,25.5,21.2,18.6,77,68,56,30.44,30.18,14,8,0,0.00
2013-10-29,33.3,30.6,27.7,32.8,27.4,21.1,98,88,75,30.42,30.09,8,3,0,0.01
2013-10-30,41.9,37.4,32.7,35.1,33.5,30.7,98,86,76,30.09,29.64,6,2,0,0.07
2013-10-31,41.9,40.1,38.5,38.3,34.1,32.0,98,79,73,29.64,29.31,6,1,0,0.01
2013-11-1,40.8,38.0,34.2,38.3,34.2,28.9,98,87,70,29.79,29.33,7,2,0,0.00
2013-11-2,43.7,35.7,28.9,34.5,30.1,26.3,98,81,60,30.01,29.78,5,1,0,0.00
2013-11-3,49.3,41.2,32.7,36.4,33.2,28.9,88,74,60,30.03,29.77,6,2,0,0.00
2013-11-4,45.1,40.4,30.9,42.5,34.4,27.1,98,79,68,30.02,29.71,6,2,0,0.10
2013-11-5,35.6,32.0,28.4,27.1,24.6,23.5,85,74,63,30.17,30.01,4,1,0,0.00
2013-11-6,37.8,31.5,26.2,24.2,20.7,16.6,78,65,48,30.09,29.98,7,2,0,0.00
2013-11-7,36.5,29.5,23.7,23.5,21.6,19.0,86,73,56,30.14,30.08,6,1,0,0.00
2013-11-8,37.9,34.7,22.8,30.9,27.4,19.0,90,75,64,30.11,29.52,7,2,0,0.00
2013-11-9,37.8,35.2,33.1,34.4,30.4,26.8,98,83,70,30.15,29.53,7,3,0,0.00
2013-11-10,39.9,33.8,25.5,27.6,25.1,17.1,78,70,60,30.26,30.07,14,3,0,0.00
2013-11-11,25.0,17.3,14.5,15.6,7.9,5.7,73,66,58,30.68,30.15,15,6,0,0.00
2013-11-12,27.5,18.7,10.0,12.0,6.2,3.6,76,59,40,30.71,30.31,5,2,0,0.00
2013-11-13,46.4,33.1,21.7,33.0,23.6,12.5,78,68,54,30.28,29.79,6,2,0,0.00
2013-11-14,47.1,38.1,33.6,35.2,31.7,29.4,87,78,62,29.79,29.68,4,1,0,0.00
2013-11-15,48.9,37.7,27.9,36.6,32.0,24.8,98,81,59,29.73,29.50,4,0,0,0.00
2013-11-16,42.1,40.5,38.3,41.2,36.8,33.8,98,87,80,29.49,29.18,4,1,0,0.07
2013-11-17,41.7,36.0,25.3,37.8,30.6,19.1,98,81,73,29.68,29.16,12,3,0,0.03
2013-11-18,26.6,23.7,18.5,19.1,16.9,14.7,85,75,69,30.17,29.68,9,2,0,0.00
2013-11-19,39.7,30.1,18.0,29.9,22.9,14.0,87,75,64,30.18,29.70,9,2,0,0.00
2013-11-20,46.0,39.5,29.8,31.6,29.1,26.6,88,67,54,29.96,29.71,5,2,0,0.00
2013-11-21,34.0,24.9,17.6,30.8,18.6,10.3,89,77,67,30.50,29.96,10,4,0,0.00
2013-11-22,24.3,14.6,6.8,14.1,5.7,-1.1,79,68,50,30.61,30.40,7,3,0,0.00
2013-11-23,11.5,6.9,3.6,0.7,-1.9,-4.7,78,67,51,30.77,30.59,7,2,0,0.00
2013-11-24,33.4,20.0,3.7,20.9,8.4,-3.3,74,61,49,30.58,29.72,8,3,0,0.00
2013-11-25,35.8,31.1,23.7,25.8,22.0,13.4,79,69,57,29.99,29.71,7,3,0,0.00
2013-11-26,23.4,14.9,10.0,16.6,5.1,1.0,79,65,54,30.32,29.98,10,4,0,0.00
2013-11-27,19.4,14.7,7.9,8.9,5.9,2.4,79,68,62,30.31,29.98,5,1,0,0.00
2013-11-28,19.4,17.4,8.1,12.3,9.4,3.0,80,70,62,30.42,29.99,7,2,0,0.00
2013-11-29,27.1,18.9,7.2,18.7,11.2,2.1,82,72,61,30.43,30.00,4,1,0,0.00
2013-11-30,32.5,25.8,21.2,22.6,19.3,17.0,84,76,66,30.12,29.95,7,2,0,0.00
2013-12-1,25.5,23.1,21.9,19.6,18.7,17.9,87,83,78,30.13,29.84,5,1,0,0.00
2013-12-2,31.8,27.5,22.3,30.2,25.0,19.0,98,90,87,29.85,29.53,5,3,0,0.00
2013-12-3,31.3,29.1,25.9,29.5,27.4,25.4,98,93,88,29.78,29.54,10,6,0,0.00
2013-12-4,26.4,21.9,14.7,25.9,19.3,9.9,98,90,81,29.78,29.37,11,5,0,0.00
2013-12-5,14.0,1.1,-9.0,8.7,-6.1,-15.8,79,71,65,30.16,29.47,6,3,0,0.00
2013-12-6,-2.4,-9.5,-16.8,-11.2,-17.3,-24.4,71,68,65,30.50,30.17,3,1,0,0.00
2013-12-7,-5.3,-15.2,-22.0,-15.6,-23.4,-30.0,69,65,60,30.55,30.42,4,1,0,0.00
2013-12-8,6.1,-5.8,-23.1,-1.3,-13.0,-31.9,76,70,62,30.43,29.91,5,0,0,0.00
2013-12-9,-2.4,-7.3,-13.7,-8.3,-14.9,-21.2,76,69,60,29.92,29.74,5,1,0,0.00
2013-12-10,3.4,-5.7,-13.4,-5.3,-13.0,-20.6,77,70,63,30.20,29.70,4,1,0,0.00
2013-12-11,-4.2,-11.1,-18.9,-10.9,-19.6,-26.7,72,65,57,30.42,30.16,4,1,0,0.00
2013-12-12,12.4,3.6,-7.1,4.2,-3.8,-13.7,76,71,61,30.16,30.05,6,1,0,0.00
2013-12-13,8.4,0.3,-2.2,2.5,-7.7,-12.4,79,68,59,30.27,30.09,11,7,0,0.00
2013-12-14,7.9,-0.1,-7.1,0.5,-6.8,-14.3,75,72,69,30.26,29.97,7,3,0,0.00
2013-12-15,-5.6,-10.3,-15.7,-14.1,-19.0,-23.4,70,64,56,30.07,29.99,5,2,0,0.00
2013-12-16,23.2,5.0,-6.0,22.7,-1.6,-15.4,98,74,61,29.99,29.71,4,1,0,0.00
2013-12-17,25.5,13.8,-3.6,23.4,6.8,-9.5,98,74,61,29.99,29.70,7,2,0,0.00
2013-12-18,25.0,13.4,-0.2,15.8,7.0,-5.9,88,75,66,29.97,29.51,4,1,0,0.00
2013-12-19,17.4,7.8,1.2,11.3,0.7,-5.7,79,72,65,30.08,29.76,12,8,0,0.00
2013-12-20,12.7,3.7,-2.7,8.3,-1.5,-8.4,83,79,76,30.03,29.74,7,2,0,0.00
2013-12-21,12.9,9.9,7.0,8.2,5.2,2.4,83,81,79,29.95,29.76,8,3,0,0.00
2013-12-22,11.5,6.7,-1.7,7.4,1.8,-7.9,83,80,74,30.16,29.92,9,4,0,0.00
2013-12-23,-1.8,-9.6,-23.4,-8.0,-17.2,-32.2,74,68,62,30.40,30.17,7,3,0,0.00
2013-12-24,6.3,-8.0,-27.9,1.2,-15.2,-36.9,79,70,60,30.36,29.98,4,1,0,0.00
2013-12-25,22.3,10.9,4.6,17.9,6.1,-0.7,85,80,74,30.01,29.92,5,1,0,0.00
2013-12-26,16.0,11.2,6.3,12.0,6.5,1.2,84,81,78,30.05,29.97,2,0,0,0.00
2013-12-27,36.0,27.5,16.0,29.5,23.6,12.0,98,85,74,30.04,29.71,5,2,0,0.00
2013-12-28,30.9,25.0,4.5,29.7,22.6,-2.2,98,90,73,30.04,29.61,19,5,0,0.00
2013-12-29,3.7,-11.0,-21.3,-3.0,-21.2,-29.6,73,60,45,30.25,30.06,11,3,0,0.00
2013-12-30,-2.7,-13.3,-26.0,-10.9,-21.3,-34.9,72,66,61,30.12,30.06,3,0,0,0.00
2013-12-31,-9.6,-15.4,-22.4,-17.9,-24.1,-30.9,72,63,54,30.33,30.06,6,2,0,0.00
2014-1-1,-7.1,-12.5,-17.9,-17.9,-22.1,-26.9,67,61,56,30.41,30.33,6,3,0,0.00
2014-1-2,-4.9,-16.7,-25.6,-18.2,-26.2,-34.5,69,61,49,30.41,30.20,4,1,0,0.00